Time;durP1;ratioP1;P1;durP2;ratioP2;P2;SDS_P1;SDS_P2;PMS_P1;PMS_P2;Temp;Humidity;BMP_temperature;BMP_pressure;BME280_temperature;BME280_humidity;BME280_pressure;Samples;Min_cycle;Max_cycle;Signal;HPM_P1;HPM_P2
2021/07/22 00:02:22;;;;;;;8.95;6.25;;;;;;;23.07;54.41;102201.59;5011928;28;20029;-60
2021/07/22 00:04:47;;;;;;;10.02;6.57;;;;;;;23.04;54.44;102194.69;5012169;28;20030;-61
2021/07/22 00:07:13;;;;;;;7.80;5.80;;;;;;;23.02;54.26;102193.97;5011406;28;20021;-61
2021/07/22 00:09:39;;;;;;;8.70;6.55;;;;;;;23.05;54.36;102195.53;5011751;28;20275;-60
2021/07/22 00:12:07;;;;;;;10.20;6.95;;;;;;;23.04;54.46;102196.50;5011825;28;20068;-61
2021/07/22 00:14:32;;;;;;;8.75;6.35;;;;;;;23.04;54.55;102194.69;5011073;28;20033;-61
2021/07/22 00:16:57;;;;;;;10.07;6.63;;;;;;;23.00;54.28;102190.59;5015932;28;20414;-62
2021/07/22 00:19:23;;;;;;;9.00;6.30;;;;;;;23.03;54.23;102193.00;5015361;28;20030;-61
2021/07/22 00:21:48;;;;;;;7.95;5.90;;;;;;;23.03;54.31;102197.47;5015029;28;20026;-60
2021/07/22 00:24:13;;;;;;;9.00;6.13;;;;;;;23.03;54.41;102192.16;5015504;28;20382;-60
2021/07/22 00:26:38;;;;;;;9.87;6.37;;;;;;;22.99;54.30;102187.09;5015127;28;20026;-61
2021/07/22 00:29:04;;;;;;;9.60;6.72;;;;;;;23.02;54.33;102193.97;5015042;28;20050;-61
2021/07/22 00:31:29;;;;;;;9.27;6.20;;;;;;;23.01;54.43;102192.28;5015276;28;20030;-62
2021/07/22 00:33:57;;;;;;;9.93;6.43;;;;;;;23.01;54.30;102186.97;5015396;28;20029;-62
2021/07/22 00:36:22;;;;;;;8.23;5.68;;;;;;;23.01;54.57;102189.63;5014379;28;20646;-61
2021/07/22 00:38:53;;;;;;;10.60;6.33;;;;;;;23.00;54.61;102190.59;5015376;28;20046;-61
2021/07/22 00:41:19;;;;;;;8.27;5.95;;;;;;;22.99;54.54;102189.75;5015296;28;20029;-62
2021/07/22 00:43:44;;;;;;;8.80;6.38;;;;;;;22.99;54.64;102186.25;5014657;28;20038;-61
2021/07/22 00:46:09;;;;;;;8.90;7.10;;;;;;;22.97;54.48;102180.19;5015242;28;20080;-61
2021/07/22 00:48:35;;;;;;;8.85;6.30;;;;;;;22.99;54.75;102187.09;5014756;28;20113;-60
2021/07/22 00:51:01;;;;;;;9.50;6.70;;;;;;;22.99;54.48;102180.94;5014531;28;20041;-60
2021/07/22 00:53:26;;;;;;;9.80;6.65;;;;;;;22.97;54.68;102175.75;5014711;28;20030;-60
2021/07/22 00:55:54;;;;;;;9.27;6.78;;;;;;;22.98;54.59;102185.38;5014287;28;20022;-61
2021/07/22 00:58:22;;;;;;;8.38;6.20;;;;;;;22.98;54.33;102181.91;5014894;28;20026;-61
2021/07/22 01:00:47;;;;;;;9.07;6.53;;;;;;;22.98;54.32;102176.56;5014496;28;20128;-62
2021/07/22 01:03:12;;;;;;;10.03;6.53;;;;;;;22.97;54.50;102178.41;5014265;28;20100;-61
2021/07/22 01:05:41;;;;;;;8.68;6.43;;;;;;;22.97;54.59;102180.19;5014539;28;20684;-61
2021/07/22 01:08:06;;;;;;;10.25;6.55;;;;;;;22.96;54.33;102181.19;5014763;28;20052;-61
2021/07/22 01:10:31;;;;;;;7.97;6.00;;;;;;;22.96;54.60;102176.69;5013891;28;20026;-61
2021/07/22 01:12:56;;;;;;;9.98;6.85;;;;;;;22.95;54.67;102174.16;5014788;28;20358;-61
2021/07/22 01:15:22;;;;;;;8.70;6.10;;;;;;;22.96;54.53;102175.88;5014199;28;20076;-62
2021/07/22 01:17:48;;;;;;;9.65;6.80;;;;;;;22.94;54.43;102170.66;5013872;28;20072;-61
2021/07/22 01:20:21;;;;;;;9.70;6.82;;;;;;;22.93;54.26;102166.31;5014792;28;20421;-61
2021/07/22 01:22:48;;;;;;;9.45;6.80;;;;;;;22.92;54.34;102162.00;5014398;28;20096;-61
2021/07/22 01:25:14;;;;;;;9.95;7.00;;;;;;;22.93;54.43;102170.78;5013962;28;20052;-61
2021/07/22 01:27:40;;;;;;;9.70;7.70;;;;;;;22.94;54.36;102167.16;5014445;28;20065;-61
2021/07/22 01:30:07;;;;;;;10.88;7.07;;;;;;;22.90;54.47;102163.91;5014578;28;20053;-61
2021/07/22 01:32:32;;;;;;;9.82;6.68;;;;;;;22.93;54.76;102173.47;5013384;28;20026;-62
2021/07/22 01:34:58;;;;;;;9.40;6.63;;;;;;;22.92;54.62;102167.31;5014347;28;20026;-62
2021/07/22 01:37:23;;;;;;;8.77;6.43;;;;;;;22.92;54.51;102174.41;5013962;28;20305;-61
2021/07/22 01:39:49;;;;;;;10.25;7.40;;;;;;;22.91;54.33;102167.44;5013679;28;20025;-61
2021/07/22 01:42:14;;;;;;;10.52;7.00;;;;;;;22.91;54.40;102162.94;5014268;28;20164;-61
2021/07/22 01:44:39;;;;;;;9.38;6.78;;;;;;;22.91;54.31;102164.78;5014331;28;20117;-62
2021/07/22 01:47:05;;;;;;;10.40;7.25;;;;;;;22.90;54.14;102161.25;5013543;28;20057;-61
2021/07/22 01:49:31;;;;;;;8.57;6.72;;;;;;;22.91;54.27;102164.78;5013647;28;20488;-61
2021/07/22 01:51:56;;;;;;;10.00;7.07;;;;;;;22.90;54.27;102161.25;5013323;28;20491;-63
2021/07/22 01:54:21;;;;;;;8.77;6.50;;;;;;;22.88;54.44;102163.19;5014157;28;20029;-62
2021/07/22 01:56:47;;;;;;;9.70;7.00;;;;;;;22.90;54.53;102165.72;5014371;28;20045;-62
2021/07/22 01:59:12;;;;;;;9.07;6.82;;;;;;;22.90;54.32;102168.38;5013633;28;20270;-62
2021/07/22 02:01:38;;;;;;;10.50;6.80;;;;;;;22.89;54.24;102167.56;5013855;28;20465;-62
2021/07/22 02:04:03;;;;;;;8.88;6.65;;;;;;;22.89;54.42;102169.34;5014007;28;20046;-62
2021/07/22 02:06:30;;;;;;;9.10;6.47;;;;;;;22.86;54.49;102162.47;5012973;28;20036;-62
2021/07/22 02:08:55;;;;;;;9.45;6.82;;;;;;;22.87;54.24;102166.81;5014140;28;20073;-63
2021/07/22 02:11:20;;;;;;;10.45;7.15;;;;;;;22.88;54.21;102170.34;5013982;28;20478;-62
2021/07/22 02:13:46;;;;;;;9.13;7.03;;;;;;;22.87;54.27;102165.97;5012796;28;20492;-61
2021/07/22 02:16:11;;;;;;;9.67;7.33;;;;;;;22.88;54.45;102165.03;5013640;28;20034;-61
2021/07/22 02:18:36;;;;;;;9.75;6.90;;;;;;;22.86;54.23;102162.47;5013310;28;20838;-61
2021/07/22 02:21:05;;;;;;;10.20;6.90;;;;;;;22.87;54.28;102164.16;5012655;28;20386;-61
2021/07/22 02:23:31;;;;;;;10.77;6.95;;;;;;;22.87;54.20;102161.50;5013249;28;20278;-60
2021/07/22 02:25:56;;;;;;;9.38;6.78;;;;;;;22.85;54.45;102158.13;5013571;28;20022;-61
2021/07/22 02:28:21;;;;;;;9.83;6.90;;;;;;;22.83;54.67;102163.56;5012501;28;20543;-60
2021/07/22 02:30:46;;;;;;;9.43;7.13;;;;;;;22.86;54.17;102157.16;5013414;28;20378;-61
2021/07/22 02:33:12;;;;;;;10.07;7.00;;;;;;;22.86;54.56;102164.28;5013329;28;20040;-62
2021/07/22 02:35:37;;;;;;;8.70;6.60;;;;;;;22.83;54.22;102163.56;5012355;28;20739;-61
2021/07/22 02:38:02;;;;;;;11.30;7.13;;;;;;;22.83;54.48;102158.25;5012897;28;20275;-61
2021/07/22 02:40:27;;;;;;;8.85;7.22;;;;;;;22.85;54.08;102162.59;5013088;28;20343;-61
2021/07/22 02:42:53;;;;;;;9.50;7.03;;;;;;;22.81;54.57;102160.19;5012504;28;20509;-61
2021/07/22 02:45:18;;;;;;;10.47;6.67;;;;;;;22.83;54.25;102166.22;5012817;28;20695;-61
2021/07/22 02:47:44;;;;;;;9.75;7.38;;;;;;;22.85;54.51;102165.25;5013195;28;20283;-60
2021/07/22 02:50:09;;;;;;;10.00;6.97;;;;;;;22.77;54.12;102152.59;5011949;28;20053;-61
2021/07/22 02:52:35;;;;;;;9.40;6.82;;;;;;;22.81;54.42;102165.50;5012691;28;20029;-61
2021/07/22 02:55:03;;;;;;;9.93;7.30;;;;;;;22.83;54.11;102168.03;5013130;28;20057;-61
2021/07/22 02:57:28;;;;;;;9.45;7.20;;;;;;;22.83;54.09;102168.03;5011798;28;20029;-61
2021/07/22 02:59:54;;;;;;;8.38;6.00;;;;;;;22.82;54.58;102172.50;5012982;28;20026;-61
2021/07/22 03:02:19;;;;;;;10.80;7.45;;;;;;;22.82;54.50;102163.69;5011683;28;20105;-61
2021/07/22 03:04:44;;;;;;;9.03;7.03;;;;;;;22.81;54.40;102168.16;5012613;28;20106;-61
2021/07/22 03:07:09;;;;;;;9.90;6.87;;;;;;;22.77;54.44;102161.41;5012871;28;20271;-61
2021/07/22 03:09:35;;;;;;;11.13;7.27;;;;;;;22.78;54.27;102168.41;5011634;28;20337;-61
2021/07/22 03:12:00;;;;;;;9.97;7.00;;;;;;;22.80;54.14;102168.28;5012709;28;20325;-61
2021/07/22 03:14:25;;;;;;;10.45;7.15;;;;;;;22.79;54.44;102167.44;5012231;28;20651;-61
2021/07/22 03:16:50;;;;;;;10.88;6.80;;;;;;;22.79;54.45;102172.75;5011956;28;20409;-61
2021/07/22 03:19:16;;;;;;;10.15;7.85;;;;;;;22.79;54.11;102171.91;5012060;28;20037;-61
2021/07/22 03:21:41;;;;;;;11.10;7.82;;;;;;;22.76;54.18;102159.69;5012684;28;20017;-61
2021/07/22 03:24:06;;;;;;;10.00;7.40;;;;;;;22.76;54.07;102154.38;5011784;28;20373;-61
2021/07/22 03:26:32;;;;;;;10.30;7.20;;;;;;;22.78;54.04;102157.78;5012269;28;20022;-60
2021/07/22 03:28:57;;;;;;;9.83;6.77;;;;;;;22.77;54.19;102158.75;5012511;28;20695;-62
2021/07/22 03:31:22;;;;;;;10.17;7.60;;;;;;;22.77;54.49;102156.09;5011525;28;20272;-61
2021/07/22 03:33:50;;;;;;;9.77;7.30;;;;;;;22.78;54.35;102156.91;5012312;28;20022;-61
2021/07/22 03:36:15;;;;;;;9.68;6.60;;;;;;;22.76;54.03;102157.03;5012019;28;20037;-60
2021/07/22 03:38:43;;;;;;;10.35;7.30;;;;;;;22.76;53.97;102154.38;5011475;28;20029;-60
2021/07/22 03:41:16;;;;;;;10.85;7.18;;;;;;;22.77;54.35;102157.91;5012161;28;20036;-62
2021/07/22 03:43:47;;;;;;;12.43;7.35;;;;;;;22.77;54.04;102160.56;5012463;28;20026;-61
2021/07/22 03:46:12;;;;;;;9.05;6.68;;;;;;;22.76;54.11;102157.03;5011562;28;20101;-61
2021/07/22 03:48:37;;;;;;;8.70;6.53;;;;;;;22.76;54.16;102159.69;5011857;28;20133;-62
2021/07/22 03:51:03;;;;;;;9.93;7.10;;;;;;;22.76;54.09;102156.19;5014563;28;20458;-62
2021/07/22 03:53:28;;;;;;;10.02;7.53;;;;;;;22.75;54.21;102152.72;5015146;28;20283;-61
2021/07/22 03:55:53;;;;;;;9.77;6.80;;;;;;;22.75;54.23;102158.03;5016286;28;20030;-61
2021/07/22 03:58:24;;;;;;;10.77;7.53;;;;;;;22.73;54.09;102149.34;5015976;28;20028;-61
2021/07/22 04:00:50;;;;;;;9.55;6.80;;;;;;;22.75;54.17;102150.06;5015281;28;20813;-60
2021/07/22 04:03:15;;;;;;;9.90;7.15;;;;;;;22.75;54.27;102150.06;5016563;28;20026;-61
2021/07/22 04:05:40;;;;;;;10.70;7.07;;;;;;;22.74;54.34;102153.66;5018053;28;20018;-61
2021/07/22 04:08:06;;;;;;;10.70;7.60;;;;;;;22.74;54.23;102151.00;5018413;28;20029;-61
2021/07/22 04:10:34;;;;;;;8.30;6.95;;;;;;;22.74;53.92;102156.31;5017868;28;20026;-62
2021/07/22 04:13:00;;;;;;;10.43;6.90;;;;;;;22.74;54.12;102156.31;5017552;28;20120;-61
2021/07/22 04:15:29;;;;;;;10.25;6.75;;;;;;;22.72;54.11;102150.31;5018373;28;20034;-61
2021/07/22 04:17:56;;;;;;;10.75;7.35;;;;;;;22.73;54.28;102154.66;5019122;28;20017;-61
2021/07/22 04:20:23;;;;;;;10.52;7.55;;;;;;;22.73;54.39;102157.31;5019080;28;20374;-61
2021/07/22 04:22:50;;;;;;;9.07;6.88;;;;;;;22.73;54.35;102154.66;5019679;28;20041;-61
2021/07/22 04:25:15;;;;;;;8.70;6.70;;;;;;;22.70;54.12;102159.34;5016188;28;20501;-60
2021/07/22 04:27:41;;;;;;;9.90;6.75;;;;;;;22.73;54.32;102170.59;5015152;28;20057;-60
2021/07/22 04:30:07;;;;;;;8.40;6.45;;;;;;;22.73;54.23;102173.25;5015846;28;20022;-61
2021/07/22 04:32:33;;;;;;;9.93;7.35;;;;;;;22.73;54.35;102165.28;5015328;28;20491;-61
2021/07/22 04:34:58;;;;;;;9.77;7.00;;;;;;;22.72;54.22;102174.22;5015097;28;20057;-61
2021/07/22 04:37:23;;;;;;;11.63;7.07;;;;;;;22.74;54.12;102158.16;5015833;28;20481;-61
2021/07/22 04:39:48;;;;;;;8.83;6.70;;;;;;;22.72;54.43;102171.56;5016121;28;20516;-63
2021/07/22 04:42:14;;;;;;;9.45;6.90;;;;;;;22.66;54.16;102160.59;5015010;28;20275;-61
2021/07/22 04:44:39;;;;;;;9.55;6.88;;;;;;;22.72;54.14;102170.72;5015568;28;20072;-61
2021/07/22 04:47:04;;;;;;;10.73;7.07;;;;;;;22.74;54.22;102176.75;5015579;28;20121;-61
2021/07/22 04:49:30;;;;;;;9.07;6.88;;;;;;;22.72;54.16;102176.03;5014096;28;20046;-61
2021/07/22 04:51:58;;;;;;;10.40;6.97;;;;;;;22.71;54.30;102174.34;5014611;28;20399;-61
2021/07/22 04:54:24;;;;;;;8.88;6.63;;;;;;;22.71;54.45;102172.50;5013455;28;20275;-61
2021/07/22 04:56:52;;;;;;;9.77;6.85;;;;;;;22.72;54.24;102179.53;5013615;28;20022;-60
2021/07/22 04:59:17;;;;;;;9.30;6.68;;;;;;;22.70;54.25;102173.50;5013812;28;20026;-60
2021/07/22 05:01:43;;;;;;;8.30;6.43;;;;;;;22.72;54.46;102173.38;5013624;28;20041;-60
2021/07/22 05:04:08;;;;;;;9.32;7.07;;;;;;;22.71;54.27;102183.16;5013301;28;20279;-60
2021/07/22 05:06:34;;;;;;;8.38;5.88;;;;;;;22.71;54.54;102182.31;5013836;28;20346;-61
2021/07/22 05:09:03;;;;;;;9.45;6.78;;;;;;;22.71;54.37;102179.66;5013084;28;20052;-60
2021/07/22 05:11:30;;;;;;;8.60;6.22;;;;;;;22.70;54.35;102180.63;5013495;28;20079;-61
2021/07/22 05:13:55;;;;;;;8.88;7.03;;;;;;;22.70;54.43;102176.16;5013468;28;20473;-61
2021/07/22 05:16:22;;;;;;;8.70;6.25;;;;;;;22.70;54.53;102180.63;5012824;28;20030;-62
2021/07/22 05:18:51;;;;;;;9.93;6.68;;;;;;;22.70;54.18;102184.13;5013577;28;20040;-61
2021/07/22 05:21:16;;;;;;;7.93;6.05;;;;;;;22.72;54.34;102187.50;5013478;28;20441;-61
2021/07/22 05:23:41;;;;;;;8.50;6.13;;;;;;;22.71;54.39;102191.13;5012723;28;20057;-62
2021/07/22 05:26:10;;;;;;;8.38;5.80;;;;;;;22.71;54.55;102188.47;5013648;28;20104;-61
2021/07/22 05:28:37;;;;;;;8.57;6.35;;;;;;;22.71;54.57;102185.81;5013358;28;20033;-61
2021/07/22 05:31:06;;;;;;;9.55;6.13;;;;;;;22.70;54.26;102181.47;5012915;28;20359;-61
2021/07/22 05:33:33;;;;;;;8.13;6.03;;;;;;;22.71;54.63;102185.81;5013170;28;20120;-62
2021/07/22 05:36:04;;;;;;;9.32;6.55;;;;;;;22.74;54.63;102187.38;5013529;28;20100;-61
2021/07/22 05:38:31;;;;;;;7.97;5.82;;;;;;;22.73;54.48;102183.03;5012698;28;20040;-62
2021/07/22 05:41:07;;;;;;;8.60;6.18;;;;;;;22.71;54.55;102182.31;5013349;28;20017;-61
2021/07/22 05:43:33;;;;;;;8.95;6.13;;;;;;;22.73;54.73;102188.34;5013217;28;20029;-61
2021/07/22 05:45:59;;;;;;;8.27;5.78;;;;;;;22.74;54.57;102190.88;5012470;28;20017;-61
2021/07/22 05:48:25;;;;;;;8.07;6.13;;;;;;;22.75;54.54;102189.09;5012778;28;20482;-60
2021/07/22 05:50:53;;;;;;;8.38;5.80;;;;;;;22.76;54.47;102185.44;4966635;28;1364790;-60
2021/07/22 05:53:19;;;;;;;7.22;5.60;;;;;;;22.73;54.51;102185.69;5012907;28;20117;-61
2021/07/22 05:55:45;;;;;;;8.07;5.78;;;;;;;22.73;54.52;102175.91;5013976;28;20025;-60
2021/07/22 05:58:10;;;;;;;8.65;5.90;;;;;;;22.73;54.81;102175.06;5013461;28;20026;-60
2021/07/22 06:00:36;;;;;;;7.68;5.82;;;;;;;22.76;54.44;102185.44;5013665;28;20026;-62
2021/07/22 06:03:06;;;;;;;8.07;5.95;;;;;;;22.76;54.63;102186.28;5013762;28;20068;-62
2021/07/22 06:05:33;;;;;;;7.65;5.55;;;;;;;22.74;54.52;102182.91;5012799;28;20018;-61
2021/07/22 06:08:00;;;;;;;8.57;6.07;;;;;;;22.76;54.76;102180.97;5013770;28;20058;-61
2021/07/22 06:10:26;;;;;;;7.95;5.75;;;;;;;22.76;54.90;102188.09;5013446;28;20018;-60
2021/07/22 06:12:51;;;;;;;8.35;5.88;;;;;;;22.76;54.60;102190.75;5012191;28;20038;-61
2021/07/22 06:15:17;;;;;;;9.20;6.10;;;;;;;22.77;54.75;102192.44;5013388;28;20196;-61
2021/07/22 06:17:43;;;;;;;9.13;5.60;;;;;;;22.77;54.87;102192.44;5013862;28;20102;-61
2021/07/22 06:20:09;;;;;;;8.35;5.78;;;;;;;22.76;54.63;102188.94;5012753;28;20034;-61
2021/07/22 06:22:34;;;;;;;8.15;5.38;;;;;;;22.73;54.46;102189.22;5013225;28;20036;-62
2021/07/22 06:25:00;;;;;;;8.65;5.90;;;;;;;22.75;54.83;102183.78;5013444;28;20466;-61
2021/07/22 06:27:25;;;;;;;7.67;5.53;;;;;;;22.79;54.79;102201.97;5012575;28;20036;-62
2021/07/22 06:29:50;;;;;;;6.67;4.63;;;;;;;22.75;54.54;102187.25;5013331;28;20275;-61
2021/07/22 06:32:15;;;;;;;7.30;5.40;;;;;;;22.78;54.68;102192.34;5013110;28;20287;-62
2021/07/22 06:34:41;;;;;;;8.45;5.60;;;;;;;22.78;54.95;102194.13;5012785;28;20634;-61
2021/07/22 06:37:06;;;;;;;9.03;6.90;;;;;;;22.78;55.14;102191.47;5013179;28;20026;-60
2021/07/22 06:39:35;;;;;;;11.07;7.45;;;;;;;22.75;55.17;102183.78;5013206;28;20680;-63
2021/07/22 06:42:01;;;;;;;11.13;7.47;;;;;;;22.74;55.44;102187.38;5012671;28;20022;-62
2021/07/22 06:44:29;;;;;;;10.98;7.43;;;;;;;22.70;56.04;102189.44;5013085;28;20029;-63
2021/07/22 06:46:55;;;;;;;10.68;7.25;;;;;;;22.72;56.09;102192.81;5013039;28;20022;-63
2021/07/22 06:49:20;;;;;;;14.05;8.45;;;;;;;22.71;56.46;102191.13;5011943;28;20038;-63
2021/07/22 06:51:48;;;;;;;12.13;8.40;;;;;;;22.68;56.61;102191.34;5012976;28;20402;-64
2021/07/22 06:54:13;;;;;;;13.32;8.40;;;;;;;22.68;56.75;102193.19;5013193;28;20034;-64
2021/07/22 06:56:38;;;;;;;10.85;7.13;;;;;;;22.68;56.74;102193.19;5012035;28;20029;-63
2021/07/22 06:59:06;;;;;;;11.67;8.23;;;;;;;22.67;56.47;102187.03;5012945;28;20025;-65
2021/07/22 07:01:32;;;;;;;11.23;8.05;;;;;;;22.64;56.95;102188.09;5011793;28;20389;-66
2021/07/22 07:03:57;;;;;;;12.50;8.20;;;;;;;22.62;57.10;102189.19;5012707;28;20037;-64
2021/07/22 07:06:22;;;;;;;13.90;8.95;;;;;;;22.61;57.11;102190.19;5012140;28;20390;-64
2021/07/22 07:08:47;;;;;;;14.55;8.90;;;;;;;22.58;57.69;102182.44;5011793;28;20053;-66
2021/07/22 07:11:13;;;;;;;13.27;8.37;;;;;;;22.53;57.85;102179.31;5012570;28;20437;-66
2021/07/22 07:13:39;;;;;;;13.50;8.23;;;;;;;22.55;57.62;102196.81;5012041;28;20466;-66
2021/07/22 07:16:05;;;;;;;12.05;8.10;;;;;;;22.52;57.54;102189.06;5011711;28;20060;-66
2021/07/22 07:18:30;;;;;;;12.00;7.85;;;;;;;22.50;57.43;102193.69;5012410;28;20026;-64
2021/07/22 07:20:56;;;;;;;12.82;8.40;;;;;;;22.49;57.82;102193.78;5012643;28;20068;-65
2021/07/22 07:23:21;;;;;;;14.73;8.60;;;;;;;22.49;57.80;102199.94;5011433;28;20052;-62
2021/07/22 07:25:49;;;;;;;11.00;7.80;;;;;;;22.47;58.03;102196.56;5012582;28;20284;-65
2021/07/22 07:28:14;;;;;;;10.93;7.88;;;;;;;22.50;58.13;102204.31;5012474;28;20346;-65
2021/07/22 07:30:43;;;;;;;11.68;7.68;;;;;;;22.51;57.82;102206.00;5011719;28;20456;-63
2021/07/22 07:33:08;;;;;;;11.57;7.32;;;;;;;22.52;57.54;102198.88;5012393;28;20493;-64
2021/07/22 07:35:43;;;;;;;12.30;6.63;;;;;;;22.53;57.74;102200.56;5012154;28;20056;-63
2021/07/22 07:38:08;;;;;;;10.25;6.93;;;;;;;22.49;57.31;102189.31;5012019;28;20275;-62
2021/07/22 07:40:34;;;;;;;10.88;7.00;;;;;;;22.58;57.14;102214.31;5012093;28;20034;-62
2021/07/22 07:42:59;;;;;;;8.93;6.30;;;;;;;22.51;57.32;102194.50;5012262;28;20018;-62
2021/07/22 07:45:27;;;;;;;10.80;7.63;;;;;;;22.56;57.48;102198.50;5011409;28;20033;-61
2021/07/22 07:47:55;;;;;;;11.82;7.15;;;;;;;22.57;57.16;102207.31;5012216;28;20271;-63
2021/07/22 07:50:21;;;;;;;13.13;8.00;;;;;;;22.55;57.67;102204.78;5011635;28;20053;-64
2021/07/22 07:52:47;;;;;;;11.27;7.82;;;;;;;22.60;57.52;102205.25;5011577;28;20030;-61
2021/07/22 07:55:14;;;;;;;11.18;6.53;;;;;;;22.59;57.56;102205.41;5012337;28;20116;-61
2021/07/22 07:57:42;;;;;;;11.35;7.22;;;;;;;22.60;57.59;102215.03;5012080;28;20030;-63
2021/07/22 08:00:08;;;;;;;11.77;6.85;;;;;;;22.62;57.16;102211.31;5012535;28;20025;-63
2021/07/22 08:02:34;;;;;;;9.32;6.47;;;;;;;22.62;57.44;102208.66;5011951;28;20038;-64
2021/07/22 08:04:59;;;;;;;9.90;6.55;;;;;;;22.62;57.73;102200.69;5011727;28;20026;-64
2021/07/22 08:07:25;;;;;;;11.70;6.82;;;;;;;22.63;57.70;102205.00;5012134;28;20048;-69
2021/07/22 08:09:51;;;;;;;10.52;6.95;;;;;;;22.73;57.36;102215.78;5012453;28;20451;-64
2021/07/22 08:12:16;;;;;;;11.60;6.95;;;;;;;22.73;57.53;102205.16;5011159;28;20495;-64
2021/07/22 08:14:42;;;;;;;9.32;6.05;;;;;;;22.75;57.29;102205.03;5012254;28;20021;-63
2021/07/22 08:17:08;;;;;;;10.43;6.32;;;;;;;22.76;57.15;102215.50;5012042;28;20022;-63
2021/07/22 08:19:34;;;;;;;12.23;6.55;;;;;;;22.77;57.33;102209.22;5010956;28;20113;-63
2021/07/22 08:22:00;;;;;;;12.68;6.25;;;;;;;22.81;57.26;102204.50;5012056;28;20060;-61
2021/07/22 08:24:25;;;;;;;9.27;6.13;;;;;;;22.84;57.09;102206.91;5015486;28;20029;-62
2021/07/22 08:26:51;;;;;;;9.07;5.88;;;;;;;22.83;57.23;102195.47;5013695;28;20105;-63
2021/07/22 08:29:16;;;;;;;10.18;6.25;;;;;;;22.93;57.32;102202.69;5012342;28;20540;-62
2021/07/22 08:31:41;;;;;;;9.33;5.67;;;;;;;22.96;56.80;102207.75;5012893;28;20028;-64
2021/07/22 08:34:06;;;;;;;12.30;6.40;;;;;;;22.97;56.87;102204.13;5011850;28;20866;-63
2021/07/22 08:36:35;;;;;;;8.40;6.00;;;;;;;23.02;56.59;102204.63;5013628;28;20458;-62
2021/07/22 08:39:00;;;;;;;10.23;5.43;;;;;;;23.06;56.82;102200.72;5016044;28;20030;-62
2021/07/22 08:41:25;;;;;;;10.07;6.25;;;;;;;23.08;56.37;102204.16;5015370;28;20030;-62
2021/07/22 08:43:52;;;;;;;9.47;6.80;;;;;;;23.07;56.67;102204.25;5016263;28;20540;-60
2021/07/22 08:46:18;;;;;;;10.52;6.22;;;;;;;23.05;56.17;102200.84;5015215;28;20787;-60
2021/07/22 08:48:44;;;;;;;10.60;6.03;;;;;;;23.04;55.94;102200.00;5014691;28;20036;-61
2021/07/22 08:51:10;;;;;;;9.60;6.07;;;;;;;23.05;55.75;102200.84;5016039;28;20101;-62
2021/07/22 08:53:38;;;;;;;8.90;5.63;;;;;;;23.05;55.96;102199.06;5015437;28;20064;-60
2021/07/22 08:56:06;;;;;;;10.95;6.13;;;;;;;23.10;56.10;102210.19;5014451;28;20018;-62
2021/07/22 08:58:32;;;;;;;10.65;6.57;;;;;;;23.09;56.06;102197.00;5015273;28;20545;-62
2021/07/22 09:01:00;;;;;;;10.82;7.40;;;;;;;23.09;55.37;102192.53;5015439;28;20068;-60
2021/07/22 09:03:26;;;;;;;8.70;5.60;;;;;;;23.15;55.39;102193.84;5015627;28;20022;-62
2021/07/22 09:05:51;;;;;;;9.98;5.80;;;;;;;23.20;55.20;102198.81;5015417;28;20080;-62
2021/07/22 09:08:16;;;;;;;9.90;5.57;;;;;;;23.22;55.50;102189.72;5014969;28;20071;-63
2021/07/22 09:10:41;;;;;;;9.13;5.97;;;;;;;23.16;55.75;102183.09;5015223;28;20395;-61
2021/07/22 09:13:22;;;;;;;9.00;5.70;;;;;;;23.27;55.49;102194.66;5014769;28;20374;-61
2021/07/22 09:15:51;;;;;;;9.52;5.97;;;;;;;23.26;55.52;102193.81;5015065;28;20116;-60
2021/07/22 09:18:36;;;;;;;9.98;5.35;;;;;;;23.28;55.72;102183.06;5014882;28;20113;-62
2021/07/22 09:21:17;;;;;;;7.53;5.22;;;;;;;23.32;55.63;102189.78;5014622;28;20040;-62
2021/07/22 09:24:02;;;;;;;8.30;5.20;;;;;;;23.31;55.26;102185.47;5013915;28;20330;-62
2021/07/22 09:26:38;;;;;;;7.60;5.43;;;;;;;23.34;55.74;102188.69;5014194;28;20030;-62
2021/07/22 09:29:04;;;;;;;8.48;5.05;;;;;;;23.33;55.34;102189.66;5014284;28;20048;-61
2021/07/22 09:31:29;;;;;;;8.30;5.07;;;;;;;23.31;55.16;102188.13;5013800;28;20039;-62
2021/07/22 09:33:56;;;;;;;7.28;5.35;;;;;;;23.30;55.59;102195.22;5014033;28;20033;-64
2021/07/22 09:36:28;;;;;;;8.95;5.10;;;;;;;23.29;55.72;102193.56;5013219;28;20104;-63
2021/07/22 09:38:53;;;;;;;8.40;5.38;;;;;;;23.29;55.34;102198.88;5014783;28;20032;-62
2021/07/22 09:41:23;;;;;;;9.05;5.13;;;;;;;23.31;55.08;102196.09;5013860;28;20038;-61
2021/07/22 09:43:55;;;;;;;8.55;5.90;;;;;;;23.30;54.76;102192.56;5013387;28;20132;-62
2021/07/22 09:46:40;;;;;;;7.55;4.93;;;;;;;23.34;54.87;102196.69;5013819;28;20379;-61
2021/07/22 09:49:12;;;;;;;7.88;4.85;;;;;;;23.33;54.27;102189.66;5012662;28;20045;-61
2021/07/22 09:51:39;;;;;;;9.25;5.15;;;;;;;23.38;53.86;102197.25;5013379;28;20037;-62
2021/07/22 09:54:09;;;;;;;7.15;4.45;;;;;;;23.40;54.06;102198.00;5013602;28;20493;-61
2021/07/22 09:56:36;;;;;;;6.80;4.53;;;;;;;23.37;53.65;102187.63;5013488;28;20033;-71
2021/07/22 09:59:02;;;;;;;9.70;4.90;;;;;;;23.40;53.48;102198.00;5012871;28;20025;-59
2021/07/22 10:01:30;;;;;;;7.68;4.93;;;;;;;23.40;53.63;102192.69;5013292;28;20188;-60
2021/07/22 10:03:57;;;;;;;7.57;5.03;;;;;;;23.35;53.21;102192.19;5013752;28;20022;-60
2021/07/22 10:06:24;;;;;;;7.70;4.70;;;;;;;23.36;53.18;102186.75;5012834;28;20025;-59
2021/07/22 10:08:49;;;;;;;6.82;4.50;;;;;;;23.37;53.35;102182.28;5014525;28;20030;-60
2021/07/22 10:11:16;;;;;;;6.78;4.38;;;;;;;23.43;53.12;102186.25;5013717;28;20091;-61
2021/07/22 10:13:47;;;;;;;7.47;4.38;;;;;;;23.44;53.54;102186.13;5013432;28;20045;-61
2021/07/22 10:16:22;;;;;;;7.85;4.57;;;;;;;23.43;52.97;102173.81;4960103;28;20112;-61
2021/07/22 10:18:49;;;;;;;8.75;5.00;;;;;;;23.40;52.68;102173.19;5013078;28;20037;-63
2021/07/22 10:21:15;;;;;;;7.57;4.70;;;;;;;23.43;52.67;102184.44;5013210;28;20446;-61
2021/07/22 10:23:41;;;;;;;7.85;4.78;;;;;;;23.45;52.55;102173.66;5013557;28;20037;-60
2021/07/22 10:26:08;;;;;;;6.40;4.00;;;;;;;23.46;52.32;102181.50;5013019;28;20119;-60
2021/07/22 10:28:33;;;;;;;7.60;4.25;;;;;;;23.47;52.19;102183.19;5013311;28;20454;-62
2021/07/22 10:31:02;;;;;;;5.97;3.85;;;;;;;23.48;51.61;102170.72;5013249;28;20165;-61
2021/07/22 10:33:29;;;;;;;7.68;4.55;;;;;;;23.47;51.68;102175.22;5011038;28;20113;-62
2021/07/22 10:35:55;;;;;;;6.70;4.10;;;;;;;23.50;51.84;102171.47;5013134;28;20034;-64
2021/07/22 10:38:21;;;;;;;6.93;4.13;;;;;;;23.48;52.17;102168.94;5012928;28;20456;-63
2021/07/22 10:40:54;;;;;;;8.25;4.53;;;;;;;23.50;51.97;102172.31;5012319;28;20101;-63
2021/07/22 10:43:47;;;;;;;7.68;4.20;;;;;;;23.47;51.71;102174.38;5012768;28;20488;-63
2021/07/22 10:46:19;;;;;;;8.23;4.65;;;;;;;23.46;51.76;102162.88;5013085;28;20057;-69
2021/07/22 10:48:45;;;;;;;7.30;4.80;;;;;;;23.50;51.58;102161.66;4960605;28;20080;-62
2021/07/22 10:51:19;;;;;;;7.32;4.45;;;;;;;23.52;51.83;102166.84;4997263;28;20129;-61
2021/07/22 10:53:54;;;;;;;7.32;4.28;;;;;;;23.55;52.32;102162.13;5012802;28;20040;-62
2021/07/22 10:56:22;;;;;;;8.00;4.25;;;;;;;23.53;51.72;102161.41;5013109;28;20026;-61
2021/07/22 10:58:49;;;;;;;7.82;4.32;;;;;;;23.52;52.02;102156.22;5012687;28;20034;-61
2021/07/22 11:01:43;;;;;;;7.78;4.03;;;;;;;23.53;52.26;102165.91;5012187;28;20030;-62
2021/07/22 11:04:36;;;;;;;6.35;4.18;;;;;;;23.51;52.09;102163.38;5013069;28;20033;-65
2021/07/22 11:07:03;;;;;;;8.07;4.40;;;;;;;23.51;52.21;102157.19;5013258;28;20040;-64
2021/07/22 11:09:51;;;;;;;6.47;4.43;;;;;;;23.53;52.25;102153.44;5012206;28;20022;-65
2021/07/22 11:12:43;;;;;;;7.07;4.32;;;;;;;23.58;52.41;102161.03;5012682;28;20136;-63
2021/07/22 11:15:18;;;;;;;6.68;4.45;;;;;;;23.60;52.17;102158.25;5012553;28;20072;-64
2021/07/22 11:17:45;;;;;;;8.13;4.50;;;;;;;23.60;52.38;102151.09;5013541;28;20113;-63
2021/07/22 11:20:19;;;;;;;10.10;4.70;;;;;;;23.64;51.78;102151.66;5013619;28;20026;-63
2021/07/22 11:22:48;;;;;;;7.95;4.70;;;;;;;23.65;51.80;102151.53;5012097;28;20026;-64